Aviation Digital Data Service (ADDS)

Output produced by METARs form (1512 UTC 19 January 2019)
found at http://www.aviationweather.gov/metar/data/
 
Forecast for: PTPN (POHNPEI AIRPORT , FM)
Text: PTPN 191131Z 1912/2012 07011KT P6SM VCSH SCT018 SCT050
Forecast period: 1200 UTC 19 January 2019 to 1200 UTC 20 January 2019
Forecast type: FROM: standard forecast or significant change
Winds: from the ENE (70 degrees) at 13 MPH (11 knots; 5.7 m/s)
Visibility: 6 or more miles 10+ km)
Ceiling: at least 12,000 feet AGL
Clouds: scattered clouds at 1800 feet AGL
scattered clouds at 5000 feet AGL
Weather: VCSH  (showers in vicinity)
Text: TEMPO 1912/1914 6SM -SHRA BKN018
Forecast period: 1200 to 1400 UTC 19 January 2019
Forecast type: TEMPORARY: The following changes expected for less than half the time period
Visibility: 6 miles (10 km)
Ceiling: 1800 feet AGL
Clouds: broken clouds at 1800 feet AGL
Weather: -SHRA  (light rain showers)